Time;durP1;ratioP1;P1;durP2;ratioP2;P2;SDS_P1;SDS_P2;PMS_P1;PMS_P2;Temp;Humidity;BMP_temperature;BMP_pressure;BME280_temperature;BME280_humidity;BME280_pressure;Samples;Min_cycle;Max_cycle;Signal;HPM_P1;HPM_P2
2022/06/08 00:01:40;;;;;;;1.00;0.82;;;21.30;99.90;;;;;;5083978;28;45998;-73
2022/06/08 00:04:12;;;;;;;0.98;0.82;;;21.30;99.90;;;;;;5083749;27;45407;-73
2022/06/08 00:06:39;;;;;;;0.70;0.70;;;21.20;99.90;;;;;;5082786;27;45432;-73
2022/06/08 00:09:06;;;;;;;0.75;0.75;;;21.20;99.90;;;;;;5083878;27;46925;-73
2022/06/08 00:11:33;;;;;;;0.75;0.70;;;21.20;99.90;;;;;;5084778;27;45327;-73
2022/06/08 00:14:00;;;;;;;0.70;0.70;;;21.20;99.90;;;;;;5085991;27;45806;-73
2022/06/08 00:16:27;;;;;;;1.85;0.70;;;21.20;99.90;;;;;;5087074;27;45590;-73
2022/06/08 00:18:53;;;;;;;1.10;0.80;;;21.20;99.90;;;;;;5087181;27;45702;-73
2022/06/08 00:21:22;;;;;;;1.00;0.80;;;21.20;99.90;;;;;;5082887;27;45591;-73
2022/06/08 00:23:49;;;;;;;1.83;0.80;;;21.20;99.90;;;;;;5083931;27;45281;-73
2022/06/08 00:26:16;;;;;;;0.93;0.80;;;21.20;99.90;;;;;;5081024;27;45306;-73
2022/06/08 00:28:43;;;;;;;0.98;0.70;;;21.20;99.90;;;;;;5086744;27;47042;-73
2022/06/08 00:31:10;;;;;;;0.82;0.80;;;21.20;99.90;;;;;;5078787;27;45212;-73
2022/06/08 00:33:37;;;;;;;1.35;0.77;;;21.20;99.90;;;;;;5079231;27;45329;-73
2022/06/08 00:36:04;;;;;;;0.70;0.70;;;21.30;99.90;;;;;;5083925;27;45395;-73
2022/06/08 00:38:32;;;;;;;1.30;1.05;;;21.30;99.90;;;;;;5081221;27;47071;-73
2022/06/08 00:41:12;;;;;;;1.48;0.80;;;21.30;99.90;;;;;;5079166;27;45256;-73
2022/06/08 00:43:39;;;;;;;1.95;0.80;;;21.30;99.90;;;;;;5084030;28;45515;-73
2022/06/08 00:46:08;;;;;;;0.82;0.68;;;21.30;99.90;;;;;;5085153;27;45386;-73
2022/06/08 00:48:41;;;;;;;1.23;0.90;;;21.30;99.90;;;;;;5085078;27;47440;-73
2022/06/08 00:51:09;;;;;;;1.40;0.68;;;21.30;99.90;;;;;;5080147;27;45235;-73
2022/06/08 00:53:42;;;;;;;1.98;0.80;;;21.30;99.90;;;;;;5082979;28;45459;-73
2022/06/08 00:56:16;;;;;;;1.10;0.52;;;21.30;99.90;;;;;;5081675;27;45372;-73
2022/06/08 00:58:43;;;;;;;1.67;0.80;;;21.30;99.90;;;;;;5086913;27;45240;-73
2022/06/08 01:01:11;;;;;;;0.93;0.70;;;21.30;99.90;;;;;;5082831;27;45140;-73
2022/06/08 01:03:39;;;;;;;3.30;1.05;;;21.30;99.90;;;;;;5081861;27;45478;-73
2022/06/08 01:06:07;;;;;;;0.70;0.68;;;21.30;99.90;;;;;;5085272;27;45558;-73
2022/06/08 01:08:41;;;;;;;0.95;0.63;;;21.30;99.90;;;;;;5089396;27;45305;-73
2022/06/08 01:11:13;;;;;;;0.82;0.80;;;21.30;99.90;;;;;;5084825;28;45160;-73
2022/06/08 01:13:42;;;;;;;2.50;0.70;;;21.30;99.90;;;;;;5087249;27;45380;-73
2022/06/08 01:16:11;;;;;;;0.90;0.60;;;21.30;99.90;;;;;;5082429;27;45674;-72
2022/06/08 01:18:40;;;;;;;0.80;0.80;;;21.30;99.90;;;;;;5086278;27;48180;-73
2022/06/08 01:21:44;;;;;;;0.50;0.50;;;21.30;99.90;;;;;;5095989;27;46263;-73
2022/06/08 01:24:13;;;;;;;1.10;0.65;;;21.20;99.90;;;;;;5081396;28;45165;-73
2022/06/08 01:26:45;;;;;;;0.77;0.50;;;21.20;99.90;;;;;;5080513;27;45136;-73
2022/06/08 01:29:17;;;;;;;1.42;0.88;;;21.20;99.90;;;;;;5080964;27;46254;-73
2022/06/08 01:31:50;;;;;;;0.90;0.57;;;21.20;99.90;;;;;;5085882;27;46254;-73
2022/06/08 01:34:27;;;;;;;0.80;0.80;;;21.20;99.90;;;;;;5086614;27;45382;-73
2022/06/08 01:37:07;;;;;;;2.15;0.80;;;21.20;99.90;;;;;;5091122;27;45312;-73
2022/06/08 01:39:47;;;;;;;1.60;0.85;;;21.20;99.90;;;;;;5080029;27;45491;-73
2022/06/08 01:42:26;;;;;;;1.15;0.70;;;21.20;99.90;;;;;;5083355;28;45419;-73
2022/06/08 01:47:58;;;;;;;0.90;0.55;;;21.20;99.90;;;;;;5079569;27;45311;-73
2022/06/08 01:50:32;;;;;;;1.20;0.80;;;21.20;99.90;;;;;;5083368;27;45191;-73
2022/06/08 01:53:06;;;;;;;2.15;0.57;;;21.20;99.90;;;;;;5089319;27;45380;-73
2022/06/08 01:55:44;;;;;;;0.98;0.70;;;21.20;99.90;;;;;;5085929;28;45219;-73
2022/06/08 01:58:17;;;;;;;1.67;1.30;;;21.20;99.90;;;;;;5088908;27;45383;-73
2022/06/08 02:00:47;;;;;;;0.93;0.50;;;21.20;99.90;;;;;;5083944;27;46186;-73
2022/06/08 02:03:23;;;;;;;0.68;0.68;;;21.20;99.90;;;;;;5084666;28;45454;-73
2022/06/08 02:05:56;;;;;;;0.75;0.57;;;21.20;99.90;;;;;;5092348;27;45854;-73
2022/06/08 02:08:31;;;;;;;1.08;0.90;;;21.20;99.90;;;;;;5083427;27;45226;-73
2022/06/08 02:11:08;;;;;;;0.60;0.60;;;21.20;99.90;;;;;;5084341;28;46420;-73
2022/06/08 02:13:41;;;;;;;0.65;0.65;;;21.30;99.90;;;;;;5091476;27;45806;-73
2022/06/08 02:16:13;;;;;;;0.60;0.60;;;21.30;99.90;;;;;;5078820;27;45380;-73
2022/06/08 02:18:44;;;;;;;0.75;0.70;;;21.30;99.90;;;;;;5079768;27;45760;-73
2022/06/08 02:21:15;;;;;;;2.25;0.68;;;21.20;99.90;;;;;;5087711;27;47374;-73
2022/06/08 02:23:47;;;;;;;0.50;0.50;;;21.20;99.90;;;;;;5081260;27;45255;-73
2022/06/08 02:26:19;;;;;;;0.73;0.70;;;21.20;99.90;;;;;;5090259;27;45615;-73
2022/06/08 02:28:51;;;;;;;1.48;0.50;;;21.20;99.90;;;;;;5085289;27;45304;-73
2022/06/08 02:31:21;;;;;;;0.88;0.65;;;21.20;99.90;;;;;;5078095;27;45367;-73
2022/06/08 02:36:43;;;;;;;1.83;0.70;;;21.20;99.90;;;;;;5074784;27;45478;-73
2022/06/08 02:39:15;;;;;;;0.60;0.60;;;21.20;99.90;;;;;;5083202;27;45501;-72
2022/06/08 02:41:47;;;;;;;2.47;0.70;;;21.20;99.90;;;;;;5076878;28;47439;-73
2022/06/08 02:44:19;;;;;;;0.60;0.60;;;21.20;99.90;;;;;;5089871;27;45598;-73
2022/06/08 02:46:50;;;;;;;0.68;0.60;;;21.20;99.90;;;;;;5081767;28;45381;-73
2022/06/08 02:49:18;;;;;;;1.35;0.57;;;21.20;99.90;;;;;;5081409;27;45219;-73
2022/06/08 02:51:52;;;;;;;0.88;0.63;;;21.20;99.90;;;;;;5087744;27;45247;-73
2022/06/08 02:54:22;;;;;;;1.42;0.60;;;21.20;99.90;;;;;;5090494;27;45140;-73
2022/06/08 02:57:00;;;;;;;0.50;0.50;;;21.20;99.90;;;;;;5083671;27;45397;-73
2022/06/08 02:59:47;;;;;;;1.10;0.60;;;21.20;99.90;;;;;;5084333;28;45538;-73
2022/06/08 03:02:20;;;;;;;0.50;0.50;;;21.20;99.90;;;;;;5080864;27;46587;-73
2022/06/08 03:04:53;;;;;;;0.70;0.60;;;21.20;99.90;;;;;;5088691;27;45265;-73
2022/06/08 03:07:24;;;;;;;0.80;0.70;;;21.20;99.90;;;;;;5081084;27;46087;-73
2022/06/08 03:09:52;;;;;;;0.80;0.63;;;21.20;99.90;;;;;;5092161;27;45199;-73
2022/06/08 03:12:27;;;;;;;1.63;0.63;;;21.20;99.90;;;;;;5092353;27;46284;-73
2022/06/08 03:14:54;;;;;;;0.60;0.60;;;21.20;99.90;;;;;;5090509;27;46553;-73
2022/06/08 03:17:26;;;;;;;1.08;0.70;;;21.20;99.90;;;;;;5089958;27;45395;-73
2022/06/08 03:19:52;;;;;;;0.60;0.60;;;21.20;99.90;;;;;;5093296;27;45460;-73
2022/06/08 03:22:19;;;;;;;1.33;0.65;;;21.20;99.90;;;;;;5089336;27;47924;-73
2022/06/08 03:24:46;;;;;;;0.90;0.80;;;21.20;99.90;;;;;;5085522;27;45703;-73
2022/06/08 03:27:13;;;;;;;0.70;0.63;;;21.20;99.90;;;;;;5090712;27;45243;-73
2022/06/08 03:29:42;;;;;;;0.90;0.70;;;21.20;99.90;;;;;;5085065;27;45805;-73
2022/06/08 03:32:09;;;;;;;0.65;0.45;;;21.20;99.90;;;;;;5085253;27;46597;-73
2022/06/08 03:34:36;;;;;;;0.40;0.40;;;21.20;99.90;;;;;;5083888;27;45429;-73
2022/06/08 03:37:03;;;;;;;0.50;0.50;;;21.20;99.90;;;;;;5094925;27;45389;-73
2022/06/08 03:39:30;;;;;;;0.57;0.57;;;21.20;99.90;;;;;;5089112;27;46355;-73
2022/06/08 03:41:57;;;;;;;1.27;0.65;;;21.20;99.90;;;;;;5087028;28;45391;-73
2022/06/08 03:44:24;;;;;;;0.50;0.50;;;21.20;99.90;;;;;;5085428;27;45321;-73
2022/06/08 03:46:57;;;;;;;1.23;0.60;;;21.20;99.90;;;;;;5085709;28;45573;-73
2022/06/08 03:49:26;;;;;;;0.43;0.43;;;21.20;99.90;;;;;;5077738;28;45672;-73
2022/06/08 03:51:57;;;;;;;1.38;0.88;;;21.20;99.90;;;;;;5080895;27;47207;-73
2022/06/08 03:54:27;;;;;;;1.08;0.60;;;21.20;99.90;;;;;;5084584;27;45409;-73
2022/06/08 03:56:57;;;;;;;1.02;0.40;;;21.20;99.90;;;;;;5088153;28;45175;-73
2022/06/08 03:59:25;;;;;;;1.17;0.40;;;21.10;99.90;;;;;;5086979;28;45300;-73
2022/06/08 04:01:53;;;;;;;0.80;0.60;;;21.20;99.90;;;;;;5091087;27;46607;-73
2022/06/08 04:04:20;;;;;;;0.50;0.50;;;21.10;99.90;;;;;;5086240;27;45713;-73
2022/06/08 04:06:48;;;;;;;1.20;0.70;;;21.20;99.90;;;;;;5086947;27;45276;-73
2022/06/08 04:09:14;;;;;;;0.47;0.45;;;21.20;99.90;;;;;;5090573;27;45427;-73
2022/06/08 04:11:41;;;;;;;1.35;0.57;;;21.20;99.90;;;;;;5083953;27;46475;-73
2022/06/08 04:14:08;;;;;;;0.50;0.50;;;21.20;99.90;;;;;;5087239;27;45266;-73
2022/06/08 04:16:35;;;;;;;0.77;0.47;;;21.20;99.90;;;;;;5303700;22;45167;-73
2022/06/08 04:19:03;;;;;;;0.40;0.40;;;21.20;99.90;;;;;;5103103;27;45859;-73
2022/06/08 04:21:30;;;;;;;2.08;0.70;;;21.20;99.90;;;;;;5102506;27;47843;-73
2022/06/08 04:23:58;;;;;;;0.45;0.45;;;21.20;99.90;;;;;;5097617;27;45591;-73
2022/06/08 04:26:24;;;;;;;1.17;0.80;;;21.20;99.90;;;;;;5096967;27;45230;-73
2022/06/08 04:28:51;;;;;;;0.95;0.50;;;21.20;99.90;;;;;;5093390;27;46843;-73
2022/06/08 04:31:18;;;;;;;0.60;0.50;;;21.20;99.90;;;;;;5093807;27;47003;-73
2022/06/08 04:33:45;;;;;;;1.35;0.40;;;21.20;99.90;;;;;;5103622;27;45227;-73
2022/06/08 04:36:14;;;;;;;0.32;0.32;;;21.20;99.90;;;;;;5100214;27;46331;-73
2022/06/08 04:38:41;;;;;;;1.50;0.60;;;21.20;99.90;;;;;;5098473;27;45515;-73
2022/06/08 04:41:08;;;;;;;1.00;0.50;;;21.20;99.90;;;;;;5095643;27;46197;-73
2022/06/08 04:43:36;;;;;;;0.45;0.45;;;21.20;99.90;;;;;;5108281;27;45255;-73
2022/06/08 04:46:03;;;;;;;1.42;0.60;;;21.20;99.90;;;;;;5106771;27;45235;-73
2022/06/08 04:48:30;;;;;;;2.08;0.60;;;21.20;99.90;;;;;;5097488;27;46038;-73
2022/06/08 04:50:56;;;;;;;0.68;0.40;;;21.20;99.90;;;;;;5105177;27;47390;-73
2022/06/08 04:53:25;;;;;;;1.10;0.52;;;21.20;99.90;;;;;;5100656;27;45239;-73
2022/06/08 04:55:51;;;;;;;0.50;0.50;;;21.20;99.90;;;;;;5093624;27;45376;-73
2022/06/08 04:58:20;;;;;;;0.68;0.50;;;21.20;99.90;;;;;;5092606;27;45453;-73
2022/06/08 05:00:47;;;;;;;0.50;0.50;;;21.20;99.90;;;;;;5102464;27;45660;-73
2022/06/08 05:03:14;;;;;;;1.42;0.60;;;21.20;99.90;;;;;;5103586;27;45117;-73
2022/06/08 05:05:41;;;;;;;0.65;0.57;;;21.20;99.90;;;;;;5095424;27;45282;-73
2022/06/08 05:08:09;;;;;;;1.98;0.63;;;21.20;99.90;;;;;;5106769;27;45511;-73
2022/06/08 05:10:39;;;;;;;0.40;0.40;;;21.20;99.90;;;;;;5102401;27;45636;-73
2022/06/08 05:13:08;;;;;;;1.45;0.50;;;21.20;99.90;;;;;;5108041;27;45385;-73
2022/06/08 05:15:39;;;;;;;0.68;0.50;;;21.20;99.90;;;;;;5116058;27;45350;-73
2022/06/08 05:18:06;;;;;;;0.90;0.50;;;21.20;99.90;;;;;;5106050;27;45346;-73
2022/06/08 05:20:34;;;;;;;0.82;0.60;;;21.20;99.90;;;;;;5105725;27;45966;-73
2022/06/08 05:23:02;;;;;;;1.30;0.52;;;21.20;99.90;;;;;;5100518;27;45421;-74
2022/06/08 05:25:31;;;;;;;0.73;0.50;;;21.20;99.90;;;;;;5110184;27;45303;-74
2022/06/08 05:27:59;;;;;;;0.47;0.45;;;21.20;99.90;;;;;;5106552;27;45358;-74
2022/06/08 05:30:26;;;;;;;0.50;0.50;;;21.20;99.90;;;;;;5111397;27;45336;-74
2022/06/08 05:32:54;;;;;;;0.50;0.43;;;21.20;99.90;;;;;;5099527;27;45244;-74
2022/06/08 05:35:23;;;;;;;1.30;0.70;;;21.20;99.90;;;;;;5096348;27;45327;-74
2022/06/08 05:37:51;;;;;;;0.88;0.50;;;21.30;99.90;;;;;;5102291;27;46256;-74
2022/06/08 05:40:18;;;;;;;0.55;0.55;;;21.30;99.90;;;;;;5103407;27;46603;-74
2022/06/08 05:42:45;;;;;;;0.65;0.55;;;21.20;99.90;;;;;;5100546;27;45416;-74
2022/06/08 05:45:21;;;;;;;2.35;0.60;;;21.20;99.90;;;;;;5104489;27;45167;-74
2022/06/08 05:47:49;;;;;;;0.85;0.50;;;21.20;99.90;;;;;;5095175;27;45444;-74
2022/06/08 05:50:16;;;;;;;0.93;0.50;;;21.20;99.90;;;;;;5104867;27;47936;-74
2022/06/08 05:52:43;;;;;;;0.80;0.50;;;21.20;99.90;;;;;;5098665;27;46392;-74
2022/06/08 05:55:12;;;;;;;0.90;0.70;;;21.20;99.90;;;;;;5097431;27;45325;-74
2022/06/08 05:57:39;;;;;;;1.10;0.50;;;21.20;99.90;;;;;;5106972;27;45325;-74
2022/06/08 06:00:09;;;;;;;0.45;0.40;;;21.20;99.90;;;;;;5103919;27;46684;-74
2022/06/08 06:02:37;;;;;;;1.08;0.40;;;21.20;99.90;;;;;;5097391;27;45685;-74
2022/06/08 06:05:05;;;;;;;1.25;0.60;;;21.20;99.90;;;;;;5105020;27;45468;-74
2022/06/08 06:07:32;;;;;;;1.05;0.57;;;21.20;99.90;;;;;;5091794;27;45366;-74
2022/06/08 06:10:02;;;;;;;0.60;0.60;;;21.20;99.90;;;;;;5104601;27;46306;-74
2022/06/08 06:12:29;;;;;;;1.85;0.68;;;21.20;99.90;;;;;;5101341;27;46250;-73
2022/06/08 06:14:57;;;;;;;1.08;0.57;;;21.20;99.90;;;;;;5092263;27;45260;-73
2022/06/08 06:17:23;;;;;;;0.90;0.60;;;21.20;99.90;;;;;;5090523;27;45446;-73
2022/06/08 06:19:51;;;;;;;0.50;0.40;;;21.20;99.90;;;;;;5098679;27;46625;-73
2022/06/08 06:22:18;;;;;;;1.23;0.60;;;21.20;99.90;;;;;;5103310;27;45471;-73
2022/06/08 06:24:45;;;;;;;0.77;0.60;;;21.20;99.90;;;;;;5100069;27;45504;-73
2022/06/08 06:27:12;;;;;;;1.05;0.50;;;21.30;99.90;;;;;;5097122;27;45179;-74
2022/06/08 06:29:39;;;;;;;0.60;0.50;;;21.30;99.90;;;;;;5097900;27;46550;-73
2022/06/08 06:32:11;;;;;;;0.82;0.60;;;21.30;99.90;;;;;;5099484;27;45708;-73
2022/06/08 06:34:38;;;;;;;1.60;0.55;;;21.30;99.90;;;;;;5098580;27;45278;-73
2022/06/08 06:37:06;;;;;;;1.08;0.50;;;21.30;99.90;;;;;;5103649;27;45291;-73
2022/06/08 06:39:33;;;;;;;0.65;0.52;;;21.30;99.90;;;;;;5092071;27;45299;-73
2022/06/08 06:42:00;;;;;;;0.40;0.40;;;21.30;99.90;;;;;;5099284;27;45534;-73
2022/06/08 06:44:27;;;;;;;0.65;0.50;;;21.30;99.90;;;;;;5110968;27;45253;-73
2022/06/08 06:46:54;;;;;;;1.13;0.55;;;21.30;99.90;;;;;;5108210;27;45728;-73
2022/06/08 06:49:22;;;;;;;1.65;0.60;;;21.30;99.90;;;;;;5107879;27;46646;-73
2022/06/08 06:51:50;;;;;;;1.30;0.38;;;21.40;99.90;;;;;;5110274;27;45280;-73
2022/06/08 06:54:19;;;;;;;0.60;0.60;;;21.40;99.90;;;;;;5108263;27;45476;-73
2022/06/08 06:56:46;;;;;;;0.40;0.40;;;21.30;99.90;;;;;;5110832;27;45254;-73
2022/06/08 06:59:12;;;;;;;0.68;0.55;;;21.30;99.90;;;;;;5110179;27;46078;-73
2022/06/08 07:01:41;;;;;;;0.43;0.40;;;21.30;99.90;;;;;;5102571;27;45402;-73
2022/06/08 07:04:08;;;;;;;0.68;0.57;;;21.30;99.90;;;;;;5109733;27;45334;-73
2022/06/08 07:06:35;;;;;;;0.82;0.63;;;21.30;99.90;;;;;;5100316;27;45459;-73
2022/06/08 07:09:02;;;;;;;0.70;0.60;;;21.30;99.90;;;;;;5110152;27;46301;-73
2022/06/08 07:11:39;;;;;;;0.60;0.40;;;21.30;99.90;;;;;;5109894;27;45207;-73
2022/06/08 07:14:08;;;;;;;0.55;0.40;;;21.30;99.90;;;;;;5102566;27;45298;-73
2022/06/08 07:16:35;;;;;;;1.00;0.40;;;21.40;99.90;;;;;;5099544;27;45411;-73
2022/06/08 07:19:02;;;;;;;0.77;0.50;;;21.40;99.90;;;;;;5099948;27;45394;-73
2022/06/08 07:21:29;;;;;;;65.53;2.38;;;21.40;99.90;;;;;;5108703;27;45260;-72
2022/06/08 07:23:56;;;;;;;0.85;0.75;;;21.40;99.90;;;;;;5096898;27;45497;-72
2022/06/08 07:26:25;;;;;;;0.82;0.63;;;21.10;99.90;;;;;;5102519;27;45235;-72
2022/06/08 07:28:54;;;;;;;4.57;1.00;;;21.00;99.90;;;;;;5104766;27;45345;-72
2022/06/08 07:31:21;;;;;;;2.25;1.20;;;20.90;99.90;;;;;;5094724;27;45444;-72
2022/06/08 07:33:48;;;;;;;2.15;0.80;;;20.80;99.90;;;;;;5100792;27;45250;-72
2022/06/08 07:36:16;;;;;;;2.35;0.90;;;20.90;99.90;;;;;;5096727;27;45454;-72
2022/06/08 07:38:43;;;;;;;2.35;0.70;;;21.00;99.90;;;;;;5100460;27;46591;-72
2022/06/08 07:41:10;;;;;;;2.42;0.85;;;21.00;99.90;;;;;;5101531;27;46496;-72
2022/06/08 07:43:36;;;;;;;1.35;0.85;;;21.10;99.90;;;;;;5098341;27;45279;-72
2022/06/08 07:46:05;;;;;;;6.55;1.20;;;21.00;99.90;;;;;;5096746;27;45395;-72
2022/06/08 07:51:16;;;;;;;3.92;1.25;;;20.90;99.90;;;;;;5097280;27;45302;-72
2022/06/08 07:53:43;;;;;;;1.45;0.73;;;21.00;99.90;;;;;;5101794;27;45407;-72
2022/06/08 07:56:10;;;;;;;2.83;0.75;;;21.00;99.90;;;;;;5103668;27;45347;-72
2022/06/08 07:58:38;;;;;;;2.92;0.98;;;21.10;99.90;;;;;;5105721;27;47088;-72
2022/06/08 08:01:07;;;;;;;1.45;0.55;;;21.10;99.90;;;;;;5105881;27;45452;-72
2022/06/08 08:03:34;;;;;;;2.63;0.88;;;21.10;99.90;;;;;;5102354;27;45196;-72
2022/06/08 08:06:01;;;;;;;3.53;0.95;;;21.10;99.90;;;;;;5094544;27;45695;-72
2022/06/08 08:08:28;;;;;;;2.92;1.10;;;21.20;99.90;;;;;;5097092;27;47121;-73
2022/06/08 08:10:55;;;;;;;4.00;0.85;;;21.10;99.90;;;;;;5095962;27;46609;-72
2022/06/08 08:13:22;;;;;;;2.03;0.70;;;21.20;99.90;;;;;;5100873;27;45108;-72
2022/06/08 08:15:51;;;;;;;4.55;1.00;;;21.20;99.90;;;;;;5107088;27;45224;-72
2022/06/08 08:18:19;;;;;;;7.82;1.42;;;21.20;99.90;;;;;;5098627;27;45314;-72
2022/06/08 08:20:47;;;;;;;2.03;0.90;;;21.20;99.90;;;;;;5095136;27;45114;-72
2022/06/08 08:23:14;;;;;;;4.43;0.88;;;21.20;99.90;;;;;;5105159;27;45155;-72
2022/06/08 08:25:42;;;;;;;1.60;1.02;;;21.20;99.90;;;;;;5108784;27;45582;-72
2022/06/08 08:28:09;;;;;;;3.70;1.30;;;21.20;99.90;;;;;;5102635;27;45730;-72
2022/06/08 08:30:36;;;;;;;4.10;1.33;;;21.30;99.90;;;;;;5096081;27;45271;-72
2022/06/08 08:33:04;;;;;;;2.85;0.73;;;21.20;99.90;;;;;;5100401;27;45347;-71
2022/06/08 08:35:32;;;;;;;2.80;0.98;;;21.30;99.90;;;;;;5100647;27;45401;-72
2022/06/08 08:38:00;;;;;;;3.22;1.10;;;21.20;99.90;;;;;;5094965;27;45727;-71
2022/06/08 08:40:36;;;;;;;1.90;1.00;;;21.20;99.90;;;;;;5101522;27;45298;-72
2022/06/08 08:43:03;;;;;;;2.28;1.02;;;21.10;99.90;;;;;;5100531;27;46984;-72
2022/06/08 08:45:35;;;;;;;1.98;1.20;;;20.80;99.90;;;;;;5097271;27;45878;-72
2022/06/08 08:48:06;;;;;;;4.72;1.58;;;20.70;99.90;;;;;;5098745;27;46197;-72
2022/06/08 08:50:41;;;;;;;5.10;1.05;;;20.70;99.90;;;;;;5098664;27;45393;-71
2022/06/08 08:53:23;;;;;;;3.85;1.30;;;20.70;99.90;;;;;;5097068;27;45245;-71
2022/06/08 08:55:51;;;;;;;2.60;1.00;;;21.00;99.90;;;;;;5099873;27;45270;-71
2022/06/08 08:58:21;;;;;;;2.47;0.73;;;20.70;99.90;;;;;;5096587;27;47207;-71
2022/06/08 09:00:52;;;;;;;2.15;0.80;;;20.70;99.90;;;;;;5098325;27;46824;-72
2022/06/08 09:03:28;;;;;;;2.38;0.90;;;20.60;99.90;;;;;;5102293;27;45342;-71
2022/06/08 09:05:59;;;;;;;2.35;1.00;;;20.50;99.90;;;;;;5100151;27;45570;-72
2022/06/08 09:08:26;;;;;;;5.35;1.23;;;20.30;99.90;;;;;;5104162;27;47084;-72
2022/06/08 09:10:58;;;;;;;3.05;1.20;;;20.20;99.90;;;;;;5106630;27;45463;-72
2022/06/08 09:13:32;;;;;;;3.13;0.90;;;20.10;99.90;;;;;;5095766;27;45564;-72
2022/06/08 09:16:00;;;;;;;2.90;0.90;;;20.10;99.90;;;;;;5107074;27;45379;-72
2022/06/08 09:18:34;;;;;;;2.00;0.75;;;20.00;99.90;;;;;;5096391;27;48480;-73
2022/06/08 09:21:25;;;;;;;1.17;0.60;;;20.10;99.90;;;;;;5096487;27;45515;-72
2022/06/08 09:23:54;;;;;;;4.20;1.10;;;20.20;99.90;;;;;;5104183;27;46123;-72
2022/06/08 09:26:30;;;;;;;3.47;1.05;;;20.30;99.90;;;;;;5106714;27;45152;-72
2022/06/08 09:28:59;;;;;;;3.55;1.10;;;20.40;99.90;;;;;;5093125;27;46190;-72
2022/06/08 09:31:29;;;;;;;5.85;1.08;;;20.40;99.90;;;;;;5104719;27;45329;-72
2022/06/08 09:34:07;;;;;;;5.45;1.10;;;20.50;99.90;;;;;;5101447;27;45494;-72
2022/06/08 09:36:36;;;;;;;4.30;0.90;;;20.60;99.90;;;;;;5102332;27;45332;-72
2022/06/08 09:39:04;;;;;;;5.60;1.20;;;20.60;99.90;;;;;;5091882;27;46417;-72
2022/06/08 09:41:38;;;;;;;4.13;0.90;;;20.50;99.90;;;;;;5095533;27;45290;-71
2022/06/08 09:44:18;;;;;;;2.38;0.90;;;20.60;99.90;;;;;;5099745;27;45358;-71
2022/06/08 09:53:13;;;;;;;3.63;0.90;;;20.60;99.90;;;;;;5104475;27;45265;-72
2022/06/08 09:55:52;;;;;;;3.83;1.10;;;20.60;99.90;;;;;;5104380;27;45294;-72
2022/06/08 09:58:37;;;;;;;5.55;1.00;;;20.60;99.90;;;;;;5103069;27;45523;-72
2022/06/08 10:01:12;;;;;;;2.60;0.90;;;20.60;99.90;;;;;;5104805;27;47428;-72
2022/06/08 10:04:13;;;;;;;2.20;0.90;;;20.60;99.90;;;;;;5097585;27;45409;-72
2022/06/08 10:06:45;;;;;;;8.73;1.35;;;20.60;99.90;;;;;;5095896;27;45417;-72
2022/06/08 10:09:23;;;;;;;4.38;1.10;;;20.50;99.90;;;;;;5100139;27;45281;-72
2022/06/08 10:11:58;;;;;;;8.40;1.70;;;20.40;99.90;;;;;;5096886;27;48015;-72
2022/06/08 10:14:34;;;;;;;13.82;3.05;;;20.10;99.90;;;;;;5103827;27;45247;-71
2022/06/08 10:17:06;;;;;;;17.45;3.25;;;19.60;99.90;;;;;;5103747;27;45363;-71
2022/06/08 10:19:39;;;;;;;19.35;3.38;;;19.30;99.90;;;;;;5105698;27;45366;-71
2022/06/08 10:22:06;;;;;;;12.05;3.00;;;19.20;99.90;;;;;;5106981;27;46487;-72
2022/06/08 10:24:45;;;;;;;11.32;2.33;;;19.10;99.90;;;;;;5101161;27;45279;-72
2022/06/08 10:27:17;;;;;;;7.80;2.10;;;19.30;99.90;;;;;;5102513;27;45446;-72
2022/06/08 10:29:50;;;;;;;7.32;2.10;;;19.00;99.90;;;;;;5095850;27;45234;-72
2022/06/08 10:32:25;;;;;;;13.63;2.20;;;18.90;99.90;;;;;;5107952;27;47456;-72
2022/06/08 10:34:54;;;;;;;8.77;2.15;;;19.00;99.90;;;;;;5100113;27;45518;-72
2022/06/08 10:37:25;;;;;;;8.65;2.17;;;19.00;99.90;;;;;;5099173;27;45413;-72
2022/06/08 10:39:53;;;;;;;6.93;2.20;;;19.00;99.90;;;;;;5098999;27;45343;-72
2022/06/08 10:42:40;;;;;;;8.13;2.35;;;19.00;99.90;;;;;;5101203;27;45287;-72
2022/06/08 10:45:29;;;;;;;8.73;2.58;;;19.00;99.90;;;;;;5104423;27;45234;-72
2022/06/08 10:48:00;;;;;;;6.50;2.13;;;19.00;99.90;;;;;;5096017;27;45312;-72
2022/06/08 10:50:32;;;;;;;6.20;1.98;;;19.10;99.90;;;;;;5102125;27;45229;-72
2022/06/08 10:56:32;;;;;;;7.50;2.45;;;19.10;99.90;;;;;;5100577;27;45395;-72
2022/06/08 10:59:14;;;;;;;6.65;2.00;;;19.10;99.90;;;;;;5100866;27;45380;-72
2022/06/08 11:01:54;;;;;;;8.40;2.38;;;19.10;99.90;;;;;;5103351;27;45368;-72
2022/06/08 11:04:51;;;;;;;9.27;2.20;;;19.00;99.90;;;;;;5104133;27;46160;-72
2022/06/08 11:07:19;;;;;;;7.70;1.80;;;19.00;99.90;;;;;;5102023;27;45460;-72
2022/06/08 11:09:58;;;;;;;6.32;1.92;;;18.90;99.90;;;;;;5099884;27;45311;-72
2022/06/08 11:12:52;;;;;;;5.45;1.50;;;18.90;99.90;;;;;;5100523;27;45329;-72
2022/06/08 11:15:48;;;;;;;5.20;1.70;;;19.00;99.90;;;;;;5097347;27;47013;-72
2022/06/08 11:18:27;;;;;;;8.40;1.58;;;19.00;99.90;;;;;;5078717;27;45561;-72
2022/06/08 11:21:07;;;;;;;4.88;1.75;;;18.90;99.90;;;;;;5102939;27;45243;-72
2022/06/08 11:23:40;;;;;;;2.33;1.23;;;18.80;99.90;;;;;;5105174;27;45330;-72
2022/06/08 11:26:28;;;;;;;5.80;1.70;;;18.80;99.90;;;;;;5106071;27;45574;-72
2022/06/08 11:29:00;;;;;;;6.30;1.58;;;18.80;99.90;;;;;;5096211;27;45385;-72
2022/06/08 11:31:51;;;;;;;7.05;1.60;;;18.80;99.90;;;;;;5100802;27;45414;-72
2022/06/08 11:34:49;;;;;;;8.45;1.90;;;18.80;99.90;;;;;;5097703;27;46923;-71
2022/06/08 11:37:28;;;;;;;8.75;1.75;;;18.80;99.90;;;;;;5096794;27;46291;-72
2022/06/08 11:40:03;;;;;;;7.93;1.80;;;18.80;99.90;;;;;;5095428;27;45201;-72
2022/06/08 11:42:32;;;;;;;5.72;1.77;;;18.90;99.90;;;;;;5097522;27;45525;-72
2022/06/08 11:45:07;;;;;;;4.90;1.92;;;18.90;99.90;;;;;;5103355;27;45477;-72
2022/06/08 11:47:37;;;;;;;3.58;1.50;;;19.00;99.90;;;;;;5099073;27;45462;-72
2022/06/08 11:50:12;;;;;;;7.10;1.70;;;19.00;99.90;;;;;;5104475;27;45297;-72
2022/06/08 11:52:40;;;;;;;4.40;1.42;;;18.60;99.90;;;;;;5103447;27;45245;-72
2022/06/08 11:55:20;;;;;;;3.30;1.40;;;18.80;99.90;;;;;;5108234;27;45299;-72
2022/06/08 11:57:58;;;;;;;5.63;1.65;;;18.90;99.90;;;;;;5105436;27;46251;-72
2022/06/08 12:00:30;;;;;;;5.60;1.35;;;19.00;99.90;;;;;;5089984;28;45314;-72
2022/06/08 12:03:03;;;;;;;4.85;1.30;;;19.00;99.90;;;;;;5090751;27;45177;-72
2022/06/08 12:05:32;;;;;;;4.22;1.17;;;19.00;99.90;;;;;;5090031;28;45215;-72
2022/06/08 12:08:05;;;;;;;3.88;1.27;;;19.00;99.90;;;;;;5091272;27;45790;-72
2022/06/08 12:10:36;;;;;;;2.38;1.20;;;19.00;99.90;;;;;;5106946;27;45250;-72
2022/06/08 12:13:03;;;;;;;4.38;1.38;;;19.00;99.90;;;;;;5109401;27;45333;-72
2022/06/08 12:15:51;;;;;;;3.22;1.45;;;19.00;99.90;;;;;;5110662;27;45328;-72
2022/06/08 12:18:41;;;;;;;4.13;1.40;;;19.00;99.90;;;;;;5107199;27;46394;-72
2022/06/08 12:21:24;;;;;;;4.30;1.60;;;19.00;99.90;;;;;;5102141;27;45267;-72
2022/06/08 12:24:07;;;;;;;2.90;1.20;;;19.00;99.90;;;;;;5103389;27;45283;-72
2022/06/08 12:26:46;;;;;;;5.50;1.42;;;19.00;99.90;;;;;;5103697;27;45259;-72
2022/06/08 12:29:23;;;;;;;4.75;1.52;;;19.00;99.90;;;;;;5094120;27;46273;-72
2022/06/08 12:32:15;;;;;;;3.97;1.40;;;19.00;99.90;;;;;;5100135;27;46716;-72
2022/06/08 12:34:44;;;;;;;2.78;0.77;;;;;;;;;;5105955;27;45682;-76
2022/06/08 12:37:24;;;;;;;1.02;0.60;;;19.60;99.90;;;;;;5095523;27;45487;-75
2022/06/08 12:39:51;;;;;;;1.52;0.80;;;20.30;99.90;;;;;;5101374;27;45462;-75
2022/06/08 12:42:26;;;;;;;1.98;0.75;;;20.80;99.90;;;;;;5102167;27;45459;-75
2022/06/08 12:44:55;;;;;;;3.35;0.93;;;21.00;99.90;;;;;;5111673;27;45372;-75
2022/06/08 12:47:26;;;;;;;1.30;0.70;;;21.20;99.90;;;;;;5107527;27;45519;-75
2022/06/08 12:49:59;;;;;;;2.05;0.70;;;21.30;99.90;;;;;;5102646;27;45835;-77
2022/06/08 12:52:29;;;;;;;1.98;0.70;;;21.30;99.90;;;;;;5101269;27;45250;-77
2022/06/08 12:54:57;;;;;;;1.70;0.60;;;21.40;99.90;;;;;;5098672;27;45166;-75
2022/06/08 12:57:28;;;;;;;1.35;0.70;;;21.40;99.90;;;;;;5102437;27;45303;-76
2022/06/08 12:59:56;;;;;;;1.13;0.50;;;21.40;99.90;;;;;;5107461;27;46067;-76
2022/06/08 13:02:29;;;;;;;1.77;0.50;;;21.40;99.90;;;;;;5107975;27;45418;-76
2022/06/08 13:04:56;;;;;;;2.38;0.60;;;21.40;99.90;;;;;;5101627;27;45239;-76
2022/06/08 13:07:26;;;;;;;1.27;0.57;;;21.40;99.90;;;;;;5104489;27;45259;-76
2022/06/08 13:09:53;;;;;;;0.47;0.43;;;21.40;99.90;;;;;;5097421;27;46764;-76
2022/06/08 13:12:23;;;;;;;1.08;0.50;;;21.40;99.90;;;;;;5095404;27;45509;-76
2022/06/08 13:14:50;;;;;;;1.38;0.50;;;21.40;99.90;;;;;;5102267;27;45353;-76
2022/06/08 13:17:16;;;;;;;1.35;0.60;;;21.40;99.90;;;;;;5112538;27;45330;-77
2022/06/08 13:19:45;;;;;;;0.80;0.40;;;21.40;99.90;;;;;;5102532;27;47030;-75
2022/06/08 13:22:12;;;;;;;1.00;0.60;;;21.40;99.90;;;;;;5096568;27;45984;-75
2022/06/08 13:24:40;;;;;;;2.00;0.60;;;21.40;99.90;;;;;;5100412;27;45349;-75
2022/06/08 13:27:11;;;;;;;0.50;0.50;;;21.40;99.90;;;;;;5102113;27;45427;-74